Time;durP1;ratioP1;P1;durP2;ratioP2;P2;SDS_P1;SDS_P2;PMS_P1;PMS_P2;Temp;Humidity;BMP_temperature;BMP_pressure;BME280_temperature;BME280_humidity;BME280_pressure;Samples;Min_cycle;Max_cycle;Signal;HPM_P1;HPM_P2
2023/04/02 00:02:26;;;;;;;2.30;1.30;;;2.60;99.90;;;;;;4948071;28;20505;-68
2023/04/02 00:05:30;;;;;;;1.30;1.20;;;2.60;99.90;;;;;;4944370;28;20482;-68
2023/04/02 00:08:02;;;;;;;1.37;1.27;;;2.60;99.90;;;;;;4950995;28;21170;-68
2023/04/02 00:10:33;;;;;;;1.93;1.10;;;2.60;99.90;;;;;;4938807;28;20509;-68
2023/04/02 00:13:05;;;;;;;4.87;1.67;;;2.60;99.90;;;;;;4955662;28;20478;-68
2023/04/02 00:15:34;;;;;;;2.93;1.40;;;2.50;99.90;;;;;;4948467;28;20843;-68
2023/04/02 00:18:03;;;;;;;3.00;1.30;;;2.60;99.90;;;;;;4964149;28;20497;-68
2023/04/02 00:20:37;;;;;;;1.20;1.10;;;2.60;99.90;;;;;;4947729;28;20486;-68
2023/04/02 00:23:07;;;;;;;2.50;1.30;;;2.50;99.90;;;;;;4946643;28;20489;-68
2023/04/02 00:25:41;;;;;;;2.60;1.43;;;2.50;99.90;;;;;;4949577;28;20488;-68
2023/04/02 00:28:13;;;;;;;6.53;1.90;;;2.50;99.90;;;;;;4964653;28;20547;-68
2023/04/02 00:30:48;;;;;;;3.33;1.20;;;2.60;99.90;;;;;;4966282;28;20498;-68
2023/04/02 00:33:19;;;;;;;1.37;1.00;;;2.60;99.90;;;;;;4950107;28;20484;-68
2023/04/02 00:35:49;;;;;;;2.47;1.20;;;2.60;99.90;;;;;;4945681;28;20478;-68
2023/04/02 00:38:22;;;;;;;2.67;1.77;;;2.50;99.90;;;;;;4959612;28;20517;-68
2023/04/02 00:40:52;;;;;;;2.60;1.67;;;2.50;99.90;;;;;;4957611;28;20513;-68
2023/04/02 00:43:27;;;;;;;3.80;1.40;;;2.50;99.90;;;;;;4943141;28;20472;-68
2023/04/02 00:46:00;;;;;;;2.97;1.20;;;2.50;99.90;;;;;;4944985;28;20488;-68
2023/04/02 00:48:40;;;;;;;4.13;1.30;;;2.60;99.90;;;;;;4948961;28;20498;-68
2023/04/02 00:51:16;;;;;;;2.10;1.33;;;2.50;99.90;;;;;;4956928;28;20525;-68
2023/04/02 00:53:47;;;;;;;2.40;1.40;;;2.60;99.90;;;;;;4966324;28;20498;-68
2023/04/02 00:56:21;;;;;;;2.67;1.30;;;2.50;99.90;;;;;;4954228;28;21002;-68
2023/04/02 00:58:53;;;;;;;2.63;1.20;;;2.60;99.90;;;;;;4967744;28;21002;-68
2023/04/02 01:01:24;;;;;;;4.80;1.30;;;2.50;99.90;;;;;;4976606;28;20485;-68
2023/04/02 01:03:56;;;;;;;2.43;1.10;;;2.60;99.90;;;;;;4975281;28;20516;-68
2023/04/02 01:06:30;;;;;;;2.30;1.40;;;2.60;99.90;;;;;;4966959;28;20477;-68
2023/04/02 01:09:19;;;;;;;1.67;1.07;;;2.60;99.90;;;;;;4966019;28;20547;-68
2023/04/02 01:12:09;;;;;;;1.90;1.27;;;2.50;99.90;;;;;;4955762;28;21313;-68
2023/04/02 01:14:45;;;;;;;2.00;1.30;;;2.60;99.90;;;;;;4961431;28;20488;-68
2023/04/02 01:17:41;;;;;;;1.43;1.33;;;2.60;99.90;;;;;;4965224;28;20514;-70
2023/04/02 01:20:39;;;;;;;3.57;1.20;;;2.60;99.90;;;;;;4960062;28;20773;-68
2023/04/02 01:23:12;;;;;;;3.77;1.13;;;2.60;99.90;;;;;;4949891;28;20477;-68
2023/04/02 01:25:47;;;;;;;2.13;1.20;;;2.60;99.90;;;;;;4956458;28;20777;-68
2023/04/02 01:28:20;;;;;;;3.13;1.17;;;2.60;99.90;;;;;;4963088;28;20504;-68
2023/04/02 01:30:52;;;;;;;2.67;1.30;;;2.60;99.90;;;;;;4961104;28;21040;-68
2023/04/02 01:33:22;;;;;;;2.10;1.30;;;2.60;99.90;;;;;;4971910;28;20477;-68
2023/04/02 01:35:57;;;;;;;3.60;1.20;;;2.60;99.90;;;;;;4973114;28;21274;-68
2023/04/02 01:38:30;;;;;;;1.77;1.20;;;2.60;99.90;;;;;;4958959;28;20611;-68
2023/04/02 01:41:07;;;;;;;1.80;1.10;;;2.60;99.90;;;;;;4947290;28;20498;-68
2023/04/02 01:43:41;;;;;;;2.70;1.50;;;2.60;99.90;;;;;;4945416;28;20509;-68
2023/04/02 01:49:09;;;;;;;1.63;1.23;;;2.60;99.90;;;;;;5098025;27;20579;-67
2023/04/02 01:51:42;;;;;;;4.07;1.30;;;2.60;99.90;;;;;;5098458;27;20486;-67
2023/04/02 01:54:12;;;;;;;1.70;1.40;;;2.50;99.90;;;;;;5093157;27;20502;-66
2023/04/02 01:56:42;;;;;;;1.60;1.20;;;2.60;99.90;;;;;;5088648;27;20824;-67
2023/04/02 01:59:11;;;;;;;2.90;1.20;;;2.60;99.90;;;;;;5080404;28;20468;-67
2023/04/02 02:01:43;;;;;;;2.10;1.20;;;2.60;99.90;;;;;;5083208;27;21475;-69
2023/04/02 02:04:14;;;;;;;1.70;1.17;;;2.60;99.90;;;;;;5076851;28;21238;-67
2023/04/02 02:06:43;;;;;;;2.73;1.30;;;2.60;99.90;;;;;;5091670;28;20999;-67
2023/04/02 02:09:21;;;;;;;2.90;1.27;;;2.50;99.90;;;;;;5082536;28;21013;-68
2023/04/02 02:11:50;;;;;;;3.03;1.53;;;2.50;99.90;;;;;;5074067;28;21171;-66
2023/04/02 02:14:21;;;;;;;2.70;1.20;;;2.50;99.90;;;;;;5084494;28;20471;-67
2023/04/02 02:16:52;;;;;;;4.10;1.27;;;2.50;99.90;;;;;;5072855;28;20488;-68
2023/04/02 02:19:27;;;;;;;3.87;1.60;;;2.40;99.90;;;;;;5086954;28;20460;-67
2023/04/02 02:21:57;;;;;;;2.77;1.07;;;2.50;99.90;;;;;;5083092;28;20487;-67
2023/04/02 02:24:30;;;;;;;2.10;1.20;;;2.50;99.90;;;;;;5080591;28;20976;-66
2023/04/02 02:27:14;;;;;;;3.03;1.50;;;2.40;99.90;;;;;;5078094;28;20479;-67
2023/04/02 02:29:45;;;;;;;3.17;1.20;;;2.40;99.90;;;;;;5077785;28;20471;-72
2023/04/02 02:32:15;;;;;;;2.17;1.30;;;2.40;99.90;;;;;;5078986;28;20848;-67
2023/04/02 02:34:49;;;;;;;2.33;1.20;;;2.40;99.90;;;;;;5091204;28;20472;-67
2023/04/02 02:37:24;;;;;;;2.03;1.30;;;2.40;99.90;;;;;;5090370;28;20579;-67
2023/04/02 02:39:55;;;;;;;3.87;1.37;;;2.40;99.90;;;;;;5082172;28;20483;-66
2023/04/02 02:42:27;;;;;;;2.60;1.40;;;2.30;99.90;;;;;;5090416;27;20474;-67
2023/04/02 02:44:58;;;;;;;3.47;1.30;;;2.30;99.90;;;;;;5072611;28;20472;-68
2023/04/02 02:47:29;;;;;;;2.43;1.40;;;2.30;99.90;;;;;;5078704;28;20640;-67
2023/04/02 02:50:03;;;;;;;1.43;1.10;;;2.40;99.90;;;;;;5077212;28;20468;-66
2023/04/02 02:52:32;;;;;;;3.47;1.60;;;2.30;99.90;;;;;;5083311;28;20471;-67
2023/04/02 02:55:03;;;;;;;3.60;1.70;;;2.30;99.90;;;;;;5078390;28;20471;-67
2023/04/02 02:57:36;;;;;;;1.10;0.93;;;2.30;99.90;;;;;;5064872;28;20492;-67
2023/04/02 03:00:08;;;;;;;2.90;1.10;;;2.20;99.90;;;;;;5042286;28;20466;-66
2023/04/02 03:02:38;;;;;;;1.73;1.20;;;2.20;99.90;;;;;;5043815;28;20483;-67
2023/04/02 03:05:09;;;;;;;2.07;1.10;;;2.20;99.90;;;;;;5049904;28;20476;-67
2023/04/02 03:07:38;;;;;;;3.20;1.40;;;2.20;99.90;;;;;;5067622;28;20473;-67
2023/04/02 03:10:14;;;;;;;2.40;1.50;;;2.20;99.90;;;;;;5074524;28;20490;-68
2023/04/02 03:12:47;;;;;;;3.87;1.50;;;2.10;99.90;;;;;;5076554;28;20464;-67
2023/04/02 03:15:21;;;;;;;2.27;1.10;;;2.10;99.90;;;;;;5076707;28;20477;-67
2023/04/02 03:17:55;;;;;;;5.50;1.90;;;2.10;99.90;;;;;;5082503;28;20488;-68
2023/04/02 03:20:29;;;;;;;1.50;1.20;;;2.10;99.90;;;;;;5083222;28;20549;-67
2023/04/02 03:23:05;;;;;;;4.87;1.53;;;2.10;99.90;;;;;;5074836;28;20468;-67
2023/04/02 03:25:39;;;;;;;5.20;1.50;;;2.10;99.90;;;;;;5084397;28;20837;-69
2023/04/02 03:28:14;;;;;;;1.73;1.00;;;2.10;99.90;;;;;;5078951;28;20484;-67
2023/04/02 03:30:45;;;;;;;2.50;1.10;;;2.10;99.90;;;;;;5085018;28;20491;-67
2023/04/02 03:33:20;;;;;;;1.83;1.10;;;2.10;99.90;;;;;;5084933;28;20894;-67
2023/04/02 03:35:57;;;;;;;3.07;1.23;;;2.10;99.90;;;;;;5076556;28;20468;-66
2023/04/02 03:38:28;;;;;;;3.67;1.53;;;2.10;99.90;;;;;;5082050;28;20583;-67
2023/04/02 03:41:04;;;;;;;1.67;1.10;;;2.10;99.90;;;;;;5070886;28;20496;-67
2023/04/02 03:43:40;;;;;;;3.90;1.70;;;2.10;99.90;;;;;;5059727;28;20468;-68
2023/04/02 03:46:22;;;;;;;2.57;1.40;;;2.10;99.90;;;;;;5061626;28;20472;-67
2023/04/02 03:48:54;;;;;;;1.77;1.17;;;2.10;99.90;;;;;;5061304;28;20480;-67
2023/04/02 03:51:27;;;;;;;4.67;1.30;;;2.10;99.90;;;;;;5067584;28;20489;-67
2023/04/02 03:53:56;;;;;;;2.00;1.17;;;2.20;99.90;;;;;;5068770;28;20464;-68
2023/04/02 03:56:30;;;;;;;3.07;1.40;;;2.10;99.90;;;;;;5061301;28;20468;-68
2023/04/02 03:59:06;;;;;;;1.93;1.13;;;2.20;99.90;;;;;;5068307;28;21013;-67
2023/04/02 04:01:42;;;;;;;1.87;1.23;;;2.20;99.90;;;;;;5064299;28;20501;-66
2023/04/02 04:04:14;;;;;;;1.83;1.40;;;2.20;99.90;;;;;;5055838;28;20464;-67
2023/04/02 04:06:46;;;;;;;2.30;1.00;;;2.20;99.90;;;;;;5070574;28;20489;-67
2023/04/02 04:09:20;;;;;;;1.50;1.40;;;2.20;99.90;;;;;;5062873;28;20469;-67
2023/04/02 04:11:52;;;;;;;3.23;1.20;;;2.20;99.90;;;;;;5059072;28;20644;-70
2023/04/02 04:14:28;;;;;;;1.10;0.97;;;2.20;99.90;;;;;;5057536;28;20930;-67
2023/04/02 04:17:03;;;;;;;1.60;1.20;;;2.20;99.90;;;;;;5058123;28;20853;-67
2023/04/02 04:19:40;;;;;;;3.97;1.70;;;2.20;99.90;;;;;;5067087;28;20501;-67
2023/04/02 04:22:16;;;;;;;3.40;1.10;;;2.20;99.90;;;;;;5061068;28;20873;-69
2023/04/02 04:24:45;;;;;;;1.97;1.20;;;2.20;99.90;;;;;;5067737;28;20472;-67
2023/04/02 04:27:23;;;;;;;3.90;1.13;;;2.20;99.90;;;;;;5062510;28;20489;-67
2023/04/02 04:29:57;;;;;;;3.13;1.20;;;2.20;99.90;;;;;;5062415;28;20495;-67
2023/04/02 04:32:32;;;;;;;2.77;1.10;;;2.10;99.90;;;;;;5070267;28;20980;-67
2023/04/02 04:35:06;;;;;;;2.40;1.90;;;2.10;99.90;;;;;;5064875;28;20590;-67
2023/04/02 04:37:39;;;;;;;1.17;0.93;;;2.10;99.90;;;;;;5063250;28;20519;-67
2023/04/02 04:40:16;;;;;;;1.93;1.13;;;2.20;99.90;;;;;;5078001;28;20496;-67
2023/04/02 04:42:47;;;;;;;5.30;1.40;;;2.10;99.90;;;;;;5070268;28;20923;-67
2023/04/02 04:45:40;;;;;;;2.60;1.10;;;2.10;99.90;;;;;;5063777;28;20468;-68
2023/04/02 04:48:13;;;;;;;2.13;1.13;;;2.10;99.90;;;;;;5059975;28;20482;-66
2023/04/02 04:50:49;;;;;;;1.13;0.93;;;2.10;99.90;;;;;;5070439;28;20497;-67
2023/04/02 04:53:22;;;;;;;1.40;1.10;;;2.10;99.90;;;;;;5077141;28;20468;-67
2023/04/02 04:55:54;;;;;;;3.23;1.43;;;2.10;99.90;;;;;;5070801;28;20473;-67
2023/04/02 04:58:25;;;;;;;1.50;1.00;;;2.10;99.90;;;;;;5061483;28;20947;-66
2023/04/02 05:01:00;;;;;;;3.90;1.60;;;2.10;99.90;;;;;;5062057;28;20495;-68
2023/04/02 05:03:33;;;;;;;1.30;1.03;;;2.10;99.90;;;;;;5060758;28;20929;-67
2023/04/02 05:06:08;;;;;;;0.90;0.90;;;2.20;99.90;;;;;;5068390;28;20477;-67
2023/04/02 05:08:42;;;;;;;2.47;1.20;;;2.20;99.90;;;;;;5075388;28;20476;-67
2023/04/02 05:11:15;;;;;;;1.60;1.20;;;2.20;99.90;;;;;;5078787;28;20486;-67
2023/04/02 05:13:50;;;;;;;1.53;0.90;;;2.30;99.90;;;;;;5078461;28;20456;-67
2023/04/02 05:16:23;;;;;;;1.73;1.07;;;2.30;99.90;;;;;;5076701;28;20481;-67
2023/04/02 05:18:59;;;;;;;2.83;1.27;;;2.30;99.90;;;;;;5079633;28;20488;-67
2023/04/02 05:21:34;;;;;;;1.10;1.00;;;2.40;99.90;;;;;;5071340;28;20499;-67
2023/04/02 05:24:33;;;;;;;1.80;1.00;;;2.40;99.90;;;;;;5076813;28;20478;-67
2023/04/02 05:27:06;;;;;;;2.03;1.13;;;2.40;99.90;;;;;;5074268;28;20869;-67
2023/04/02 05:29:38;;;;;;;1.97;1.00;;;2.50;99.90;;;;;;5076031;28;20464;-67
2023/04/02 05:32:13;;;;;;;2.93;1.27;;;2.50;99.90;;;;;;5075109;28;21055;-67
2023/04/02 05:34:46;;;;;;;1.60;1.07;;;2.60;99.90;;;;;;5071982;28;20819;-67
2023/04/02 05:37:17;;;;;;;2.10;0.90;;;2.60;99.90;;;;;;5076943;28;20495;-67
2023/04/02 05:39:55;;;;;;;4.03;1.23;;;2.60;99.90;;;;;;5077229;28;20488;-67
2023/04/02 05:42:25;;;;;;;1.87;1.07;;;2.70;99.90;;;;;;5064155;28;20479;-66
2023/04/02 05:45:04;;;;;;;3.90;1.17;;;2.70;99.90;;;;;;5080005;28;20475;-67
2023/04/02 05:47:39;;;;;;;1.00;0.90;;;2.80;99.90;;;;;;5063981;28;20491;-67
2023/04/02 05:50:19;;;;;;;2.67;1.40;;;2.90;99.90;;;;;;5069267;28;20464;-67
2023/04/02 05:52:52;;;;;;;2.90;1.40;;;2.90;99.90;;;;;;5071272;28;20475;-71
2023/04/02 05:55:30;;;;;;;2.00;0.90;;;3.00;99.90;;;;;;5073106;28;20754;-67
2023/04/02 05:58:03;;;;;;;1.20;1.00;;;3.00;99.90;;;;;;5068948;28;20496;-67
2023/04/02 06:01:06;;;;;;;1.13;0.97;;;3.10;99.90;;;;;;5066048;28;20579;-67
2023/04/02 06:03:44;;;;;;;1.20;0.90;;;3.20;99.90;;;;;;5062898;28;20481;-68
2023/04/02 06:06:18;;;;;;;2.83;0.97;;;3.20;99.90;;;;;;5063409;28;20523;-67
2023/04/02 06:08:54;;;;;;;3.93;1.13;;;3.20;99.90;;;;;;5064853;28;20479;-67
2023/04/02 06:11:28;;;;;;;1.67;0.90;;;3.30;99.90;;;;;;5062378;28;20936;-67
2023/04/02 06:13:56;;;;;;;2.13;1.53;;;3.30;99.90;;;;;;5058235;28;20475;-67
2023/04/02 06:16:29;;;;;;;1.90;0.80;;;3.40;99.90;;;;;;5058556;28;20945;-67
2023/04/02 06:18:57;;;;;;;3.47;1.37;;;3.40;99.90;;;;;;5069279;28;20561;-68
2023/04/02 06:21:26;;;;;;;2.27;1.00;;;3.50;99.90;;;;;;5067616;28;20496;-68
2023/04/02 06:23:57;;;;;;;1.20;1.00;;;3.50;99.90;;;;;;5062135;28;20483;-68
2023/04/02 06:26:31;;;;;;;1.90;1.20;;;3.50;99.90;;;;;;5055993;28;20860;-68
2023/04/02 06:29:04;;;;;;;1.73;0.80;;;3.50;99.90;;;;;;5064541;28;20476;-67
2023/04/02 06:31:38;;;;;;;2.90;1.00;;;3.60;99.90;;;;;;5057247;28;20512;-68
2023/04/02 06:34:13;;;;;;;2.33;0.90;;;3.60;99.90;;;;;;5061004;28;20468;-68
2023/04/02 06:36:41;;;;;;;4.73;1.00;;;3.70;99.90;;;;;;5064757;28;20491;-68
2023/04/02 06:39:17;;;;;;;3.03;1.10;;;3.70;99.90;;;;;;5079058;28;21052;-68
2023/04/02 06:41:46;;;;;;;1.03;0.80;;;3.80;99.90;;;;;;5074599;28;21988;-67
2023/04/02 06:44:18;;;;;;;1.53;0.97;;;3.80;99.90;;;;;;5076258;28;20473;-68
2023/04/02 06:46:49;;;;;;;2.40;1.13;;;3.90;99.90;;;;;;5076954;28;20488;-69
2023/04/02 06:49:24;;;;;;;2.17;0.80;;;3.90;99.90;;;;;;5068338;28;21072;-67
2023/04/02 06:51:55;;;;;;;1.33;1.20;;;4.00;99.90;;;;;;5077331;28;20577;-65
2023/04/02 06:54:23;;;;;;;1.80;1.00;;;4.00;99.90;;;;;;5069305;28;20472;-66
2023/04/02 06:56:55;;;;;;;1.80;0.87;;;4.10;99.90;;;;;;5080824;28;20480;-66
2023/04/02 06:59:23;;;;;;;1.60;0.80;;;4.20;99.90;;;;;;5081840;28;20523;-66
2023/04/02 07:01:54;;;;;;;2.30;1.20;;;4.20;99.90;;;;;;5069775;28;21304;-66
2023/04/02 07:04:23;;;;;;;5.30;1.13;;;4.30;99.90;;;;;;5076072;28;20464;-66
2023/04/02 07:06:52;;;;;;;2.20;1.10;;;4.30;99.90;;;;;;5070266;28;21030;-66
2023/04/02 07:09:20;;;;;;;1.53;0.87;;;4.30;99.90;;;;;;5067110;28;20487;-65
2023/04/02 07:11:48;;;;;;;2.63;0.97;;;4.40;99.90;;;;;;5075270;28;20489;-66
2023/04/02 07:14:17;;;;;;;1.80;0.97;;;4.40;99.90;;;;;;5078365;28;20472;-67
2023/04/02 07:16:46;;;;;;;3.10;1.50;;;4.50;99.90;;;;;;5081219;28;20862;-67
2023/04/02 07:19:18;;;;;;;2.53;1.10;;;4.50;99.90;;;;;;5070529;28;20958;-67
2023/04/02 07:21:46;;;;;;;2.30;0.70;;;4.60;99.90;;;;;;5075192;28;20530;-67
2023/04/02 07:24:14;;;;;;;1.07;0.87;;;4.70;99.90;;;;;;5082624;28;20468;-67
2023/04/02 07:26:42;;;;;;;1.97;0.80;;;4.70;99.90;;;;;;5073038;28;20496;-66
2023/04/02 07:29:15;;;;;;;2.90;0.90;;;4.80;99.90;;;;;;5078087;28;20470;-66
2023/04/02 07:31:45;;;;;;;2.93;0.80;;;4.80;99.90;;;;;;5073900;28;20488;-65
2023/04/02 07:34:13;;;;;;;1.33;0.90;;;4.80;99.90;;;;;;5058900;28;20468;-66
2023/04/02 07:36:41;;;;;;;1.30;0.80;;;4.80;99.90;;;;;;5063930;28;20488;-66
2023/04/02 07:39:10;;;;;;;3.40;1.00;;;4.90;99.90;;;;;;5061802;28;20472;-67
2023/04/02 07:41:51;;;;;;;1.43;0.90;;;4.90;99.90;;;;;;5073524;28;20507;-67
2023/04/02 07:44:19;;;;;;;1.53;0.90;;;4.90;99.90;;;;;;5070831;28;20481;-67
2023/04/02 07:46:49;;;;;;;1.70;0.83;;;5.00;99.90;;;;;;5064484;28;21016;-65
2023/04/02 07:49:17;;;;;;;2.13;0.80;;;5.00;99.90;;;;;;5064826;28;20476;-66
2023/04/02 07:51:46;;;;;;;2.70;0.90;;;5.10;99.90;;;;;;5072607;28;20485;-66
2023/04/02 07:54:14;;;;;;;1.07;0.97;;;5.10;99.90;;;;;;5071451;28;20874;-66
2023/04/02 07:56:42;;;;;;;1.13;0.70;;;5.20;99.90;;;;;;5077907;28;21016;-66
2023/04/02 07:59:10;;;;;;;1.33;0.80;;;5.30;99.90;;;;;;5065500;28;20493;-67
2023/04/02 08:01:39;;;;;;;3.00;1.20;;;5.30;99.90;;;;;;5070184;28;20497;-66
2023/04/02 08:04:17;;;;;;;5.20;1.47;;;5.40;99.90;;;;;;5074556;28;20477;-66
2023/04/02 08:06:46;;;;;;;1.80;0.70;;;5.30;99.90;;;;;;5059762;28;20484;-67
2023/04/02 08:09:14;;;;;;;1.00;0.63;;;5.40;99.90;;;;;;5074866;28;20472;-66
2023/04/02 08:11:42;;;;;;;2.20;1.00;;;5.40;99.90;;;;;;5079719;28;20485;-67
2023/04/02 08:14:11;;;;;;;1.87;0.70;;;5.40;99.90;;;;;;5074868;28;20465;-67
2023/04/02 08:16:47;;;;;;;1.27;0.63;;;5.40;99.90;;;;;;5069000;28;20494;-67
2023/04/02 08:19:17;;;;;;;2.03;0.80;;;5.40;99.90;;;;;;5061323;28;20468;-66
2023/04/02 08:21:46;;;;;;;1.47;0.93;;;5.50;99.90;;;;;;5075763;28;21068;-67
2023/04/02 08:24:17;;;;;;;2.43;1.17;;;5.50;99.90;;;;;;5075932;28;20497;-68
2023/04/02 08:26:50;;;;;;;1.27;0.80;;;5.50;99.90;;;;;;5069982;28;20881;-66
2023/04/02 08:29:18;;;;;;;1.13;0.80;;;5.50;99.90;;;;;;5062155;28;20475;-67
2023/04/02 08:31:46;;;;;;;1.83;0.70;;;5.60;99.90;;;;;;5073920;28;20495;-67
2023/04/02 08:34:15;;;;;;;0.83;0.80;;;5.70;99.90;;;;;;5076517;28;20471;-66
2023/04/02 08:36:45;;;;;;;2.57;0.90;;;5.90;99.90;;;;;;5064613;28;20491;-67
2023/04/02 08:39:13;;;;;;;1.63;1.10;;;6.00;99.90;;;;;;5069464;28;22688;-67
2023/04/02 08:41:47;;;;;;;1.00;0.70;;;6.10;99.90;;;;;;5074622;28;20579;-68
2023/04/02 08:44:45;;;;;;;1.70;0.80;;;6.20;99.90;;;;;;5072355;28;20474;-68
2023/04/02 08:47:16;;;;;;;1.30;1.10;;;6.30;99.90;;;;;;5063980;28;20501;-67
2023/04/02 08:49:53;;;;;;;2.97;1.57;;;6.40;99.90;;;;;;5067717;28;23099;-66
2023/04/02 08:52:25;;;;;;;1.60;0.83;;;6.50;99.90;;;;;;5074726;28;20490;-65
2023/04/02 08:54:55;;;;;;;1.47;0.90;;;6.50;99.90;;;;;;5075585;28;20480;-68
2023/04/02 08:57:36;;;;;;;1.63;0.93;;;6.60;99.90;;;;;;5055554;28;20495;-69
2023/04/02 09:00:09;;;;;;;2.83;1.67;;;6.60;99.90;;;;;;5064558;28;20465;-68
2023/04/02 09:02:42;;;;;;;1.30;0.70;;;6.50;99.90;;;;;;5070195;28;20492;-67
2023/04/02 09:05:18;;;;;;;1.23;0.77;;;6.50;99.90;;;;;;5078514;28;20474;-69
2023/04/02 09:07:48;;;;;;;1.90;0.80;;;6.60;99.90;;;;;;5071067;28;20508;-68
2023/04/02 09:10:17;;;;;;;1.80;1.10;;;6.70;99.90;;;;;;5065985;28;20486;-68
2023/04/02 09:12:51;;;;;;;2.10;1.27;;;6.70;99.90;;;;;;5070297;28;20474;-70
2023/04/02 09:15:28;;;;;;;1.27;0.70;;;6.80;99.90;;;;;;5063240;28;21052;-69
2023/04/02 09:18:00;;;;;;;1.97;0.90;;;7.00;99.90;;;;;;5065711;28;20492;-67
2023/04/02 09:20:30;;;;;;;1.00;0.90;;;7.10;99.90;;;;;;5069809;28;20496;-68
2023/04/02 09:22:59;;;;;;;1.50;0.70;;;7.20;99.90;;;;;;5060106;28;20525;-68
2023/04/02 09:25:30;;;;;;;0.93;0.80;;;7.20;99.90;;;;;;5064526;28;20475;-68
2023/04/02 09:28:01;;;;;;;3.90;0.80;;;7.30;99.90;;;;;;5069579;28;20505;-71
2023/04/02 09:30:47;;;;;;;1.70;1.20;;;7.40;99.90;;;;;;5069029;28;20928;-69
2023/04/02 09:33:15;;;;;;;2.73;1.10;;;7.40;99.90;;;;;;5064283;28;20469;-69
2023/04/02 09:35:57;;;;;;;2.07;1.30;;;7.40;99.90;;;;;;5061627;28;20977;-69
2023/04/02 09:38:30;;;;;;;2.67;0.90;;;7.50;99.90;;;;;;5071454;28;20492;-68
2023/04/02 09:41:01;;;;;;;1.33;1.23;;;7.50;99.90;;;;;;5076455;28;20587;-68
2023/04/02 09:43:31;;;;;;;1.27;0.80;;;7.60;99.90;;;;;;5059342;28;20550;-68
2023/04/02 09:46:01;;;;;;;1.50;0.80;;;7.60;99.90;;;;;;5078189;28;20470;-69
2023/04/02 09:48:32;;;;;;;2.73;0.90;;;7.60;99.90;;;;;;5058018;28;20489;-69
2023/04/02 09:51:11;;;;;;;2.00;0.50;;;7.60;99.90;;;;;;5059740;28;20942;-72
2023/04/02 09:53:40;;;;;;;1.67;0.93;;;7.70;99.90;;;;;;5072828;28;20474;-68
2023/04/02 09:56:12;;;;;;;2.23;0.77;;;7.70;99.90;;;;;;5062289;28;20948;-69
2023/04/02 09:58:42;;;;;;;1.33;0.70;;;7.70;99.90;;;;;;5076944;28;20502;-69
2023/04/02 10:01:27;;;;;;;0.53;0.53;;;7.80;99.90;;;;;;5071041;28;20575;-69
2023/04/02 10:03:57;;;;;;;3.03;1.00;;;7.80;99.90;;;;;;5056494;28;20579;-69
2023/04/02 10:06:29;;;;;;;1.00;0.90;;;7.90;99.90;;;;;;5055375;28;20661;-69
2023/04/02 10:08:57;;;;;;;1.50;0.70;;;7.90;99.90;;;;;;5059819;28;22876;-69
2023/04/02 10:11:29;;;;;;;1.17;1.07;;;8.00;99.90;;;;;;5073182;28;20495;-71
2023/04/02 10:14:18;;;;;;;2.57;0.90;;;8.00;99.90;;;;;;5068773;28;21017;-70
2023/04/02 10:16:50;;;;;;;2.33;1.00;;;8.10;99.90;;;;;;5052424;28;20496;-69
2023/04/02 10:19:27;;;;;;;2.60;0.90;;;8.10;99.90;;;;;;5048423;28;20846;-68
2023/04/02 10:22:00;;;;;;;0.97;0.80;;;8.10;99.90;;;;;;5075159;28;20610;-68
2023/04/02 10:24:29;;;;;;;0.90;0.90;;;8.10;99.90;;;;;;5073294;28;20496;-69
2023/04/02 10:27:03;;;;;;;2.40;0.90;;;8.10;99.90;;;;;;5060518;28;20488;-69
2023/04/02 10:29:48;;;;;;;2.00;0.80;;;8.20;99.90;;;;;;5065016;28;20476;-69
2023/04/02 10:32:20;;;;;;;1.60;0.90;;;8.20;99.90;;;;;;5057386;28;20484;-70
2023/04/02 10:34:56;;;;;;;1.53;0.80;;;8.30;99.90;;;;;;5074591;28;20473;-70
2023/04/02 10:38:00;;;;;;;5.10;1.10;;;8.50;99.90;;;;;;5078204;28;20481;-69
2023/04/02 10:40:30;;;;;;;2.40;0.97;;;8.60;99.90;;;;;;5070434;28;20488;-68
2023/04/02 10:43:26;;;;;;;2.10;0.83;;;8.70;99.90;;;;;;5082025;28;20485;-69
2023/04/02 10:46:01;;;;;;;2.20;0.80;;;8.80;99.90;;;;;;5072078;28;20469;-69
2023/04/02 10:48:37;;;;;;;2.23;0.90;;;8.80;99.90;;;;;;5075683;28;20507;-69
2023/04/02 10:51:09;;;;;;;0.60;0.60;;;8.80;99.90;;;;;;5085077;28;21016;-68
2023/04/02 10:53:47;;;;;;;1.93;0.80;;;8.80;99.90;;;;;;5073370;28;20468;-68
2023/04/02 10:56:16;;;;;;;1.60;0.90;;;8.80;99.90;;;;;;5080292;28;20465;-69
2023/04/02 10:58:53;;;;;;;1.23;0.90;;;8.90;99.90;;;;;;5081571;28;21070;-69
2023/04/02 11:01:28;;;;;;;1.83;0.60;;;8.90;99.90;;;;;;5082085;28;20489;-69
2023/04/02 11:04:01;;;;;;;2.20;1.10;;;9.00;99.90;;;;;;5081591;28;20472;-69
2023/04/02 11:06:32;;;;;;;1.97;1.77;;;9.00;99.90;;;;;;5078663;28;20468;-68
2023/04/02 11:09:06;;;;;;;1.70;0.90;;;9.10;99.90;;;;;;5081627;28;20480;-70
2023/04/02 11:11:38;;;;;;;0.70;0.70;;;9.10;99.90;;;;;;5084906;28;20492;-68
2023/04/02 11:14:14;;;;;;;1.40;1.10;;;9.10;99.90;;;;;;5078312;28;20474;-69
2023/04/02 11:16:42;;;;;;;2.20;1.10;;;9.10;99.90;;;;;;5081118;28;20587;-68
2023/04/02 11:19:24;;;;;;;0.90;0.70;;;9.20;99.90;;;;;;5081822;28;20477;-69
2023/04/02 11:21:54;;;;;;;1.33;0.70;;;9.30;99.90;;;;;;5082406;28;20488;-68
2023/04/02 11:24:48;;;;;;;1.40;0.77;;;9.40;99.90;;;;;;5081756;28;20471;-67
2023/04/02 11:27:22;;;;;;;2.07;0.90;;;9.50;99.90;;;;;;5079717;28;20492;-68
2023/04/02 11:29:53;;;;;;;1.00;0.70;;;9.50;99.90;;;;;;5080971;28;20994;-70
2023/04/02 11:32:31;;;;;;;1.70;0.90;;;9.60;99.90;;;;;;5085856;28;20833;-69
2023/04/02 11:35:04;;;;;;;1.57;0.80;;;9.70;99.90;;;;;;5079128;28;20471;-68
2023/04/02 11:37:37;;;;;;;0.80;0.70;;;9.70;99.90;;;;;;5083641;28;20566;-68
2023/04/02 11:40:50;;;;;;;1.10;0.80;;;9.80;99.90;;;;;;5083553;28;20461;-68
2023/04/02 11:43:50;;;;;;;1.37;0.80;;;9.90;99.90;;;;;;5079710;28;20498;-68
2023/04/02 11:46:44;;;;;;;0.63;0.63;;;9.90;99.90;;;;;;5080972;28;20470;-68
2023/04/02 11:49:39;;;;;;;1.53;0.83;;;10.00;99.90;;;;;;5079887;28;20460;-70
2023/04/02 11:52:21;;;;;;;1.37;0.87;;;10.10;99.90;;;;;;5077021;28;21212;-69
2023/04/02 11:55:02;;;;;;;0.93;0.60;;;10.20;99.90;;;;;;5077623;28;20996;-68
2023/04/02 11:57:55;;;;;;;2.47;1.23;;;10.30;99.90;;;;;;5073710;28;20493;-69
2023/04/02 12:00:40;;;;;;;1.87;0.90;;;10.30;99.90;;;;;;5081183;28;20484;-69
2023/04/02 12:03:28;;;;;;;1.33;1.00;;;10.40;99.90;;;;;;5079200;28;20507;-70
2023/04/02 12:06:06;;;;;;;1.70;1.20;;;10.60;99.90;;;;;;5078632;28;20518;-68
2023/04/02 12:08:46;;;;;;;1.90;1.50;;;10.70;99.90;;;;;;5077807;28;20522;-68
2023/04/02 12:11:33;;;;;;;2.60;1.70;;;10.80;99.90;;;;;;5079457;28;20509;-69
2023/04/02 12:14:06;;;;;;;4.23;3.10;;;10.80;99.90;;;;;;5081763;28;20464;-70
2023/04/02 12:16:35;;;;;;;5.30;4.80;;;10.70;99.90;;;;;;5080136;28;20484;-69
2023/04/02 12:19:08;;;;;;;3.97;2.50;;;10.70;99.90;;;;;;5073833;28;20556;-69
2023/04/02 12:21:38;;;;;;;1.10;0.70;;;10.70;99.90;;;;;;5081251;28;20492;-69
2023/04/02 12:24:17;;;;;;;0.83;0.83;;;10.80;99.90;;;;;;5074692;28;20997;-68
2023/04/02 12:26:45;;;;;;;1.57;1.00;;;10.80;99.90;;;;;;5077485;28;20488;-69
2023/04/02 12:29:32;;;;;;;0.87;0.80;;;10.80;99.90;;;;;;5080986;28;20469;-68
2023/04/02 12:32:02;;;;;;;1.13;0.80;;;10.90;99.90;;;;;;5072523;28;21297;-67
2023/04/02 12:34:31;;;;;;;1.00;0.80;;;11.00;99.90;;;;;;5080834;28;20469;-67
2023/04/02 12:37:01;;;;;;;1.43;0.80;;;11.10;99.90;;;;;;5078964;28;21032;-66
2023/04/02 12:39:30;;;;;;;0.63;0.60;;;11.30;99.90;;;;;;5072887;28;20517;-67
2023/04/02 12:41:59;;;;;;;1.00;1.00;;;11.40;99.90;;;;;;5080139;28;20485;-65
2023/04/02 12:44:30;;;;;;;1.23;0.73;;;11.50;99.90;;;;;;5077492;28;20500;-68
2023/04/02 12:46:59;;;;;;;1.60;0.80;;;11.60;99.90;;;;;;5078225;28;20485;-68
2023/04/02 12:49:34;;;;;;;1.67;0.90;;;11.80;99.90;;;;;;5078297;28;20461;-69
2023/04/02 12:52:03;;;;;;;1.07;0.70;;;11.80;99.90;;;;;;5077321;28;20488;-67
2023/04/02 12:54:37;;;;;;;1.33;0.90;;;11.90;99.90;;;;;;5081635;28;20458;-69
2023/04/02 12:57:22;;;;;;;0.90;0.67;;;12.10;99.90;;;;;;5078844;28;20499;-68
2023/04/02 12:59:50;;;;;;;2.03;0.90;;;12.30;99.90;;;;;;5075012;28;20556;-68
2023/04/02 13:02:22;;;;;;;1.00;0.90;;;12.40;99.90;;;;;;5079127;28;20481;-69
2023/04/02 13:04:51;;;;;;;1.30;0.93;;;12.70;99.90;;;;;;5077572;28;20512;-68
2023/04/02 13:07:22;;;;;;;1.50;1.10;;;13.00;95.80;;;;;;5078550;28;20921;-68
2023/04/02 13:09:52;;;;;;;0.90;0.60;;;13.30;99.90;;;;;;5079428;28;20469;-67
2023/04/02 13:12:25;;;;;;;1.20;0.90;;;13.90;95.90;;;;;;5070815;28;20869;-65
2023/04/02 13:14:55;;;;;;;1.47;0.80;;;14.40;97.20;;;;;;5076162;28;20457;-69
2023/04/02 13:17:43;;;;;;;1.10;0.97;;;14.90;90.70;;;;;;5072920;28;20504;-66
2023/04/02 13:20:28;;;;;;;1.57;0.80;;;15.80;85.30;;;;;;5075088;28;20996;-66
2023/04/02 13:22:56;;;;;;;1.47;1.10;;;17.00;69.50;;;;;;5078766;28;20473;-64
2023/04/02 13:25:30;;;;;;;1.47;1.13;;;17.90;57.90;;;;;;5066934;28;20476;-67
2023/04/02 13:27:58;;;;;;;0.80;0.70;;;18.50;63.10;;;;;;5076047;28;20494;-68
2023/04/02 13:30:28;;;;;;;2.27;1.10;;;19.10;69.00;;;;;;5075987;28;20520;-67
2023/04/02 13:32:57;;;;;;;1.00;0.60;;;19.60;59.70;;;;;;5073573;28;20476;-66
2023/04/02 13:35:25;;;;;;;1.17;0.90;;;20.60;52.60;;;;;;5058300;28;20848;-66